createdAt,value
2018-06-05T00:00:16.499Z,22.30
2018-06-05T00:02:44.766Z,22.00
2018-06-05T00:05:13.033Z,21.70
2018-06-05T00:07:41.282Z,21.70
2018-06-05T00:10:10.324Z,21.60
2018-06-05T00:12:38.893Z,21.50
2018-06-05T00:15:07.135Z,21.40
2018-06-05T00:17:36.169Z,21.50
2018-06-05T00:20:04.441Z,21.40
2018-06-05T00:22:32.709Z,21.60
2018-06-05T00:25:01.234Z,21.80
2018-06-05T00:27:29.479Z,22.00
2018-06-05T00:29:57.780Z,22.10
2018-06-05T00:32:26.044Z,22.00
2018-06-05T00:34:54.295Z,21.90
2018-06-05T00:37:22.562Z,21.80
2018-06-05T00:39:50.795Z,21.70
2018-06-05T00:42:19.820Z,21.60
2018-06-05T00:44:48.068Z,21.60
2018-06-05T00:47:17.099Z,21.40
2018-06-05T00:49:45.478Z,21.40
2018-06-05T00:52:13.735Z,21.20
2018-06-05T00:54:42.187Z,21.30
2018-06-05T00:57:11.216Z,21.20
2018-06-05T00:59:40.234Z,21.20
2018-06-05T01:02:08.521Z,21.10
2018-06-05T01:04:36.804Z,21.10
2018-06-05T01:07:05.060Z,21.00
2018-06-05T01:09:33.311Z,20.90
2018-06-05T01:12:01.570Z,20.90
2018-06-05T01:14:29.845Z,21.00
2018-06-05T01:16:58.106Z,21.00
2018-06-05T01:19:27.116Z,20.90
2018-06-05T01:21:55.501Z,20.90
2018-06-05T01:24:23.752Z,20.70
2018-06-05T01:26:52.794Z,20.80
2018-06-05T01:29:21.356Z,20.80
2018-06-05T01:31:49.643Z,20.80
2018-06-05T01:34:17.891Z,20.80
2018-06-05T01:36:46.155Z,20.60
2018-06-05T01:39:14.414Z,20.40
2018-06-05T01:41:43.696Z,20.70
2018-06-05T01:44:11.945Z,20.70
2018-06-05T01:46:40.196Z,20.80
2018-06-05T01:49:08.458Z,20.80
2018-06-05T01:51:36.704Z,20.90
2018-06-05T01:54:04.958Z,21.00
2018-06-05T01:56:33.227Z,21.00
2018-06-05T01:59:01.483Z,21.00
2018-06-05T02:01:29.754Z,21.00
2018-06-05T02:03:58.786Z,20.70
2018-06-05T02:06:27.189Z,20.70
2018-06-05T02:08:55.457Z,20.60
2018-06-05T02:11:23.698Z,20.60
2018-06-05T02:13:51.958Z,20.70
2018-06-05T02:16:20.260Z,20.60
2018-06-05T02:18:48.522Z,20.70
2018-06-05T02:21:16.790Z,20.60
2018-06-05T02:23:45.042Z,20.40
2018-06-05T02:26:13.321Z,20.30
2018-06-05T02:28:41.718Z,20.40
2018-06-05T02:31:10.002Z,20.60
2018-06-05T02:33:38.276Z,20.70
2018-06-05T02:36:06.557Z,20.60
2018-06-05T02:38:34.806Z,20.30
2018-06-05T02:41:03.077Z,20.00
2018-06-05T02:43:31.376Z,20.10
2018-06-05T02:45:59.650Z,20.20
2018-06-05T02:48:27.923Z,20.40
2018-06-05T02:50:56.190Z,20.60
2018-06-05T02:53:24.602Z,20.80
2018-06-05T02:55:52.886Z,20.90
2018-06-05T02:58:21.157Z,20.70
2018-06-05T03:00:49.418Z,20.50
2018-06-05T03:03:17.741Z,20.30
2018-06-05T03:05:46.012Z,20.30
2018-06-05T03:08:15.062Z,20.40
2018-06-05T03:10:43.336Z,20.40
2018-06-05T03:13:11.648Z,20.40
2018-06-05T03:15:40.700Z,20.30
2018-06-05T03:18:08.948Z,20.30
2018-06-05T03:20:37.219Z,20.40
2018-06-05T03:23:05.485Z,20.40
2018-06-05T03:25:33.772Z,20.40
2018-06-05T03:28:02.030Z,20.40
2018-06-05T03:30:30.315Z,20.40
2018-06-05T03:32:58.602Z,20.30
2018-06-05T03:35:26.890Z,20.20
2018-06-05T03:37:55.145Z,20.00
2018-06-05T03:40:23.413Z,19.80
2018-06-05T03:42:51.779Z,19.90
2018-06-05T03:45:20.826Z,19.80
2018-06-05T03:47:49.144Z,19.80
2018-06-05T03:50:18.184Z,19.70
2018-06-05T03:52:46.593Z,19.70
2018-06-05T03:55:14.839Z,19.80
2018-06-05T03:57:43.101Z,19.90
2018-06-05T04:00:11.493Z,19.80
2018-06-05T04:02:39.746Z,19.80
2018-06-05T04:05:08.012Z,19.80
2018-06-05T04:07:36.298Z,19.90
2018-06-05T04:10:04.559Z,19.90
2018-06-05T04:12:33.095Z,19.90
2018-06-05T04:15:01.339Z,19.90
2018-06-05T04:17:29.618Z,19.80
2018-06-05T04:19:57.904Z,19.80
2018-06-05T04:22:26.166Z,19.80
2018-06-05T04:24:54.416Z,19.80
2018-06-05T04:27:22.710Z,19.90
2018-06-05T04:29:51.015Z,20.00
2018-06-05T04:32:19.278Z,20.10
2018-06-05T04:34:47.531Z,20.00
2018-06-05T04:37:16.640Z,19.90
2018-06-05T04:39:44.884Z,19.90
2018-06-05T04:42:13.134Z,19.90
2018-06-05T04:44:42.173Z,20.20
2018-06-05T04:47:10.424Z,20.20
2018-06-05T04:49:38.726Z,20.30
2018-06-05T04:52:06.969Z,20.40
2018-06-05T04:54:35.224Z,20.30
2018-06-05T04:57:04.254Z,20.20
2018-06-05T04:59:32.760Z,20.20
2018-06-05T05:02:01.269Z,20.30
2018-06-05T05:04:29.553Z,20.40
2018-06-05T05:06:58.584Z,20.60
2018-06-05T05:09:26.850Z,20.60
2018-06-05T05:11:55.104Z,20.80
2018-06-05T05:14:24.147Z,20.70
2018-06-05T05:16:52.396Z,20.70
2018-06-05T05:19:20.671Z,20.80
2018-06-05T05:21:48.934Z,20.80
2018-06-05T05:24:17.177Z,20.80
2018-06-05T05:26:45.811Z,20.70
2018-06-05T05:29:14.841Z,21.00
2018-06-05T05:31:43.095Z,21.00
2018-06-05T05:34:11.515Z,21.20
2018-06-05T05:36:39.763Z,21.30
2018-06-05T05:39:08.051Z,21.40
2018-06-05T05:41:36.359Z,21.50
2018-06-05T05:44:05.395Z,21.70
2018-06-05T05:46:33.671Z,21.70
2018-06-05T05:49:01.959Z,21.80
2018-06-05T05:51:30.250Z,21.90
2018-06-05T05:53:58.719Z,21.90
2018-06-05T05:56:26.978Z,22.00
2018-06-05T05:58:55.243Z,22.10
2018-06-05T06:01:24.442Z,22.30
2018-06-05T06:03:52.701Z,22.20
2018-06-05T06:06:21.064Z,22.30
2018-06-05T06:08:49.353Z,22.40
2018-06-05T06:11:17.754Z,22.30
2018-06-05T06:13:46.031Z,22.40
2018-06-05T06:16:14.318Z,22.50
2018-06-05T06:18:42.583Z,22.60
2018-06-05T06:21:10.858Z,22.60
2018-06-05T06:23:39.129Z,22.50
2018-06-05T06:26:07.413Z,22.70
2018-06-05T06:28:35.676Z,22.70
2018-06-05T06:31:03.938Z,23.00
2018-06-05T06:33:32.271Z,22.70
2018-06-05T06:36:01.300Z,23.20
2018-06-05T06:38:29.564Z,23.20
2018-06-05T06:40:57.834Z,23.50
2018-06-05T06:43:26.113Z,23.80
2018-06-05T06:45:54.376Z,23.80
2018-06-05T06:48:23.561Z,23.90
2018-06-05T06:50:52.584Z,24.20
2018-06-05T06:53:20.839Z,24.20
2018-06-05T06:55:49.915Z,24.70
2018-06-05T06:58:18.168Z,24.70
2018-06-05T07:00:46.444Z,24.90
2018-06-05T07:03:14.697Z,25.00
2018-06-05T07:05:42.978Z,25.10
2018-06-05T07:08:11.240Z,25.20
2018-06-05T07:10:39.504Z,25.50
2018-06-05T07:13:07.918Z,25.80
2018-06-05T07:15:36.180Z,25.80
2018-06-05T07:18:04.428Z,25.90
2018-06-05T07:20:32.744Z,26.00
2018-06-05T07:23:00.999Z,26.00
2018-06-05T07:25:29.256Z,26.10
2018-06-05T07:27:57.530Z,26.10
2018-06-05T07:30:25.816Z,26.30
2018-06-05T07:32:54.860Z,26.50
2018-06-05T07:35:23.124Z,26.40
2018-06-05T07:37:51.375Z,26.50
2018-06-05T07:40:19.750Z,26.40
2018-06-05T07:42:48.002Z,26.20
2018-06-05T07:45:16.281Z,26.20
2018-06-05T07:47:44.570Z,26.40
2018-06-05T07:50:12.850Z,26.50
2018-06-05T07:52:41.124Z,26.70
2018-06-05T07:55:09.415Z,26.80
2018-06-05T07:57:37.699Z,26.90
2018-06-05T08:00:06.058Z,27.00
2018-06-05T08:02:34.316Z,27.10
2018-06-05T08:05:02.584Z,27.10
2018-06-05T08:07:30.843Z,27.30
2018-06-05T08:09:59.875Z,27.40
2018-06-05T08:12:28.454Z,27.50
2018-06-05T08:14:56.703Z,27.50
2018-06-05T08:17:24.949Z,27.60
2018-06-05T08:19:53.999Z,27.80
2018-06-05T08:22:22.299Z,27.80
2018-06-05T08:24:50.556Z,27.80
2018-06-05T08:27:18.879Z,27.90
2018-06-05T08:29:48.067Z,28.20
2018-06-05T08:32:17.080Z,28.10
2018-06-05T08:34:45.338Z,28.10
2018-06-05T08:37:14.630Z,28.30
2018-06-05T08:39:42.887Z,28.30
2018-06-05T08:42:11.149Z,28.30
2018-06-05T08:44:39.542Z,28.40
2018-06-05T08:47:07.807Z,28.20
2018-06-05T08:49:36.069Z,28.40
2018-06-05T08:52:04.348Z,28.40
2018-06-05T08:54:32.599Z,28.50
2018-06-05T08:57:00.853Z,28.70
2018-06-05T08:59:29.988Z,28.90
2018-06-05T09:01:58.249Z,28.80
2018-06-05T09:04:26.495Z,29.00
2018-06-05T09:06:55.524Z,29.00
2018-06-05T09:09:23.772Z,29.00
2018-06-05T09:11:52.038Z,29.10
2018-06-05T09:14:20.419Z,29.20
2018-06-05T09:16:48.674Z,29.30
2018-06-05T09:19:16.962Z,29.30
2018-06-05T09:21:46.108Z,29.50
2018-06-05T09:24:14.367Z,29.40
2018-06-05T09:26:42.622Z,29.60
2018-06-05T09:29:11.158Z,29.60
2018-06-05T09:31:39.404Z,29.80
2018-06-05T09:34:08.418Z,29.90
2018-06-05T09:36:36.682Z,29.90
2018-06-05T09:39:04.935Z,30.00
2018-06-05T09:41:33.199Z,30.00
2018-06-05T09:44:01.453Z,30.00
2018-06-05T09:46:30.507Z,29.90
2018-06-05T09:48:58.771Z,29.90
2018-06-05T09:51:27.010Z,30.20
2018-06-05T09:53:56.164Z,30.50
2018-06-05T09:56:24.612Z,30.50
2018-06-05T09:58:52.868Z,30.60
2018-06-05T10:01:21.366Z,30.50
2018-06-05T10:03:49.612Z,30.50
2018-06-05T10:06:18.619Z,30.30
2018-06-05T10:08:46.878Z,30.20
2018-06-05T10:11:15.127Z,30.10
2018-06-05T10:13:43.377Z,30.00
2018-06-05T10:16:11.659Z,30.10
2018-06-05T10:18:39.904Z,30.30
2018-06-05T10:21:08.184Z,30.40
2018-06-05T10:23:36.431Z,30.20
2018-06-05T10:26:04.727Z,30.40
2018-06-05T10:28:32.980Z,30.60
2018-06-05T10:31:01.252Z,30.80
2018-06-05T10:33:30.281Z,31.10
2018-06-05T10:35:58.529Z,31.10
2018-06-05T10:38:27.050Z,31.10
2018-06-05T10:40:55.298Z,31.20
2018-06-05T10:43:23.550Z,31.20
2018-06-05T10:45:52.599Z,31.30
2018-06-05T10:48:20.835Z,31.30
2018-06-05T10:50:49.112Z,31.50
2018-06-05T10:53:17.379Z,31.50
2018-06-05T10:55:45.827Z,31.50
2018-06-05T10:58:14.847Z,31.50
2018-06-05T11:00:43.096Z,31.40
2018-06-05T11:03:12.154Z,31.60
2018-06-05T11:05:40.459Z,31.60
2018-06-05T11:08:08.719Z,31.80
2018-06-05T11:10:37.005Z,32.00
2018-06-05T11:13:05.389Z,32.10
2018-06-05T11:15:33.612Z,32.20
2018-06-05T11:18:01.867Z,32.30
2018-06-05T11:20:30.143Z,32.40
2018-06-05T11:22:58.399Z,32.30
2018-06-05T11:25:27.444Z,32.10
2018-06-05T11:27:55.691Z,32.10
2018-06-05T11:30:23.974Z,32.00
2018-06-05T11:32:52.228Z,32.00
2018-06-05T11:35:21.253Z,32.30
2018-06-05T11:37:49.535Z,32.30
2018-06-05T11:40:17.819Z,32.30
2018-06-05T11:42:46.051Z,32.40
2018-06-05T11:45:14.363Z,32.40
2018-06-05T11:47:42.665Z,32.50
2018-06-05T11:50:10.931Z,32.60
2018-06-05T11:52:39.212Z,32.70
2018-06-05T11:55:07.468Z,32.70
2018-06-05T11:57:35.740Z,32.90
2018-06-05T12:00:03.997Z,33.00
2018-06-05T12:02:32.256Z,33.20
2018-06-05T12:05:00.525Z,33.10
2018-06-05T12:07:29.568Z,33.00
2018-06-05T12:09:57.843Z,33.00
2018-06-05T12:12:26.109Z,33.00
2018-06-05T12:14:54.357Z,33.00
2018-06-05T12:17:22.731Z,33.00
2018-06-05T12:19:50.988Z,33.10
2018-06-05T12:22:20.008Z,33.20
2018-06-05T12:24:48.307Z,33.20
2018-06-05T12:27:16.592Z,33.30
2018-06-05T12:29:44.871Z,33.10
2018-06-05T12:32:13.173Z,33.10
2018-06-05T12:34:41.418Z,33.20
2018-06-05T12:37:09.748Z,33.40
2018-06-05T12:39:38.003Z,33.60
2018-06-05T12:42:07.072Z,33.70
2018-06-05T12:44:35.407Z,33.70
2018-06-05T12:47:03.665Z,33.60
2018-06-05T12:49:32.731Z,33.20
2018-06-05T12:52:01.040Z,33.20
2018-06-05T12:54:29.309Z,33.30
2018-06-05T12:56:57.574Z,33.40
2018-06-05T12:59:26.606Z,33.50
2018-06-05T13:01:54.959Z,33.40
2018-06-05T13:04:23.971Z,33.30
2018-06-05T13:06:52.991Z,33.30
2018-06-05T13:09:21.243Z,33.20
2018-06-05T13:11:49.571Z,33.20
2018-06-05T13:14:17.760Z,33.10
2018-06-05T13:16:46.792Z,33.40
2018-06-05T13:19:15.062Z,33.40
2018-06-05T13:21:43.323Z,33.30
2018-06-05T13:24:11.831Z,33.40
2018-06-05T13:26:40.144Z,33.30
2018-06-05T13:29:08.364Z,33.20
2018-06-05T13:31:36.902Z,33.20
2018-06-05T13:34:05.958Z,33.00
2018-06-05T13:36:34.254Z,33.00
2018-06-05T13:39:02.532Z,32.90
2018-06-05T13:41:30.766Z,32.60
2018-06-05T13:43:59.121Z,32.60
2018-06-05T13:46:27.375Z,32.40
2018-06-05T13:48:56.407Z,32.20
2018-06-05T13:51:24.911Z,32.20
2018-06-05T13:53:53.216Z,32.10
2018-06-05T13:56:22.317Z,32.00
2018-06-05T13:58:51.327Z,31.90
2018-06-05T14:01:19.597Z,31.90
2018-06-05T14:03:48.023Z,31.90
2018-06-05T14:06:16.274Z,31.70
2018-06-05T14:08:44.595Z,31.70
2018-06-05T14:11:12.867Z,31.70
2018-06-05T14:13:41.270Z,31.50
2018-06-05T14:16:10.307Z,31.70
2018-06-05T14:18:38.565Z,31.70
2018-06-05T14:21:06.805Z,31.90
2018-06-05T14:23:35.965Z,32.20
2018-06-05T14:26:04.230Z,32.20
2018-06-05T14:28:32.482Z,32.30
2018-06-05T14:31:00.747Z,32.30
2018-06-05T14:33:29.166Z,32.40
2018-06-05T14:35:57.403Z,32.40
2018-06-05T14:38:25.666Z,32.30
2018-06-05T14:40:54.696Z,32.00
2018-06-05T14:43:23.013Z,32.00
2018-06-05T14:45:51.259Z,32.10
2018-06-05T14:48:19.520Z,32.20
2018-06-05T14:50:47.778Z,32.30
2018-06-05T14:53:16.172Z,32.30
2018-06-05T14:55:44.443Z,32.40
2018-06-05T14:58:12.696Z,32.40
2018-06-05T15:00:40.934Z,32.40
2018-06-05T15:03:09.228Z,32.50
2018-06-05T15:05:38.288Z,32.60
2018-06-05T15:08:06.521Z,32.60
2018-06-05T15:10:34.805Z,32.50
2018-06-05T15:13:03.128Z,32.20
2018-06-05T15:15:31.332Z,32.20
2018-06-05T15:18:00.343Z,32.40
2018-06-05T15:20:28.613Z,32.30
2018-06-05T15:22:56.870Z,32.30
2018-06-05T15:25:26.019Z,32.00
2018-06-05T15:27:54.287Z,32.10
2018-06-05T15:30:23.312Z,31.90
2018-06-05T15:32:51.581Z,31.90
2018-06-05T15:35:19.839Z,32.00
2018-06-05T15:37:48.141Z,32.00
2018-06-05T15:40:16.356Z,31.90
2018-06-05T15:42:44.595Z,32.00
2018-06-05T15:45:13.648Z,32.30
2018-06-05T15:47:41.966Z,32.30
2018-06-05T15:50:10.202Z,32.30
2018-06-05T15:52:38.500Z,32.30
2018-06-05T15:55:07.523Z,32.20
2018-06-05T15:57:36.553Z,32.10
2018-06-05T16:00:05.636Z,32.00
2018-06-05T16:02:33.917Z,32.00
2018-06-05T16:05:02.209Z,32.00
2018-06-05T16:07:30.489Z,31.90
2018-06-05T16:09:58.798Z,31.90
2018-06-05T16:12:27.047Z,31.70
2018-06-05T16:14:55.319Z,31.80
2018-06-05T16:17:23.599Z,31.80
2018-06-05T16:19:51.837Z,31.90
2018-06-05T16:22:20.197Z,31.90
2018-06-05T16:24:49.196Z,31.80
2018-06-05T16:27:17.453Z,31.80
2018-06-05T16:29:46.596Z,31.60
2018-06-05T16:32:14.882Z,31.60
2018-06-05T16:34:43.157Z,31.50
2018-06-05T16:37:11.555Z,31.40
2018-06-05T16:39:39.803Z,31.50
2018-06-05T16:42:08.153Z,31.40
2018-06-05T16:44:36.358Z,31.40
2018-06-05T16:47:04.822Z,31.40
2018-06-05T16:49:33.065Z,31.40
2018-06-05T16:52:02.199Z,31.30
2018-06-05T16:54:30.581Z,31.30
2018-06-05T16:56:59.091Z,31.20
2018-06-05T16:59:28.514Z,31.30
2018-06-05T17:01:57.530Z,31.30
2018-06-05T17:04:25.866Z,31.30
2018-06-05T17:06:54.079Z,31.30
2018-06-05T17:09:22.326Z,31.30
2018-06-05T17:11:51.359Z,31.50
2018-06-05T17:14:19.617Z,31.50
2018-06-05T17:16:47.973Z,31.50
2018-06-05T17:19:17.009Z,31.50
2018-06-05T17:21:45.284Z,31.50
2018-06-05T17:24:13.547Z,31.50
2018-06-05T17:26:41.813Z,31.40
2018-06-05T17:29:10.084Z,31.30
2018-06-05T17:31:38.377Z,31.30
2018-06-05T17:34:06.893Z,31.20
2018-06-05T17:36:35.152Z,31.10
2018-06-05T17:39:03.403Z,31.20
2018-06-05T17:41:31.801Z,31.20
2018-06-05T17:44:00.061Z,31.20
2018-06-05T17:46:28.318Z,31.20
2018-06-05T17:48:56.726Z,31.10
2018-06-05T17:51:25.009Z,31.10
2018-06-05T17:53:53.342Z,30.90
2018-06-05T17:56:21.631Z,30.80
2018-06-05T17:58:50.222Z,30.80
2018-06-05T18:01:18.470Z,30.70
2018-06-05T18:03:47.509Z,30.70
2018-06-05T18:06:16.093Z,30.70
2018-06-05T18:08:44.332Z,30.70
2018-06-05T18:11:12.594Z,30.60
2018-06-05T18:13:40.867Z,30.70
2018-06-05T18:16:09.892Z,30.70
2018-06-05T18:18:38.136Z,30.70
2018-06-05T18:21:06.581Z,30.60
2018-06-05T18:23:34.827Z,30.60
2018-06-05T18:26:03.088Z,30.60
2018-06-05T18:28:31.348Z,30.50
2018-06-05T18:30:59.604Z,30.40
2018-06-05T18:33:28.636Z,30.40
2018-06-05T18:35:56.932Z,30.40
2018-06-05T18:38:25.213Z,30.20
2018-06-05T18:40:53.481Z,30.00
2018-06-05T18:43:21.735Z,30.00
2018-06-05T18:45:50.146Z,30.00
2018-06-05T18:48:18.411Z,30.00
2018-06-05T18:50:46.894Z,29.80
2018-06-05T18:53:15.319Z,29.80
2018-06-05T18:55:44.333Z,29.80
2018-06-05T18:58:12.582Z,29.80
2018-06-05T19:00:41.622Z,29.70
2018-06-05T19:03:09.903Z,29.70
2018-06-05T19:05:38.175Z,29.70
2018-06-05T19:08:06.430Z,29.60
2018-06-05T19:10:34.727Z,29.50
2018-06-05T19:13:02.983Z,29.50
2018-06-05T19:15:31.261Z,29.40
2018-06-05T19:18:00.275Z,29.30
2018-06-05T19:20:28.533Z,29.30
2018-06-05T19:22:56.846Z,29.30
2018-06-05T19:25:25.116Z,29.30
2018-06-05T19:27:53.382Z,29.20
2018-06-05T19:30:21.634Z,29.20
2018-06-05T19:32:49.897Z,29.30
2018-06-05T19:35:18.152Z,29.20
2018-06-05T19:37:46.423Z,29.20
2018-06-05T19:40:15.430Z,28.60
2018-06-05T19:42:43.703Z,28.50
2018-06-05T19:45:12.220Z,28.10
2018-06-05T19:47:40.474Z,27.80
2018-06-05T19:50:08.740Z,27.50
2018-06-05T19:52:37.018Z,27.30
2018-06-05T19:55:05.269Z,27.30
2018-06-05T19:57:34.288Z,27.20
2018-06-05T20:00:02.874Z,27.10
2018-06-05T20:02:31.140Z,27.00
2018-06-05T20:04:59.450Z,26.90
2018-06-05T20:07:27.796Z,26.70
2018-06-05T20:09:56.043Z,26.50
2018-06-05T20:12:25.269Z,26.10
2018-06-05T20:14:54.260Z,26.10
2018-06-05T20:17:22.522Z,26.00
2018-06-05T20:19:51.045Z,26.00
2018-06-05T20:22:19.287Z,25.90
2018-06-05T20:24:47.553Z,25.80
2018-06-05T20:27:15.815Z,25.70
2018-06-05T20:29:44.897Z,25.60
2018-06-05T20:32:13.150Z,25.60
2018-06-05T20:34:41.403Z,25.60
2018-06-05T20:37:09.676Z,25.50
2018-06-05T20:39:38.182Z,25.60
2018-06-05T20:42:06.450Z,25.70
2018-06-05T20:44:34.699Z,25.80
2018-06-05T20:47:02.966Z,26.00
2018-06-05T20:49:31.244Z,26.10
2018-06-05T20:51:59.503Z,26.20
2018-06-05T20:54:28.726Z,26.50
2018-06-05T20:56:56.979Z,26.40
2018-06-05T20:59:25.240Z,26.60
2018-06-05T21:01:53.745Z,26.60
2018-06-05T21:04:21.991Z,26.70
2018-06-05T21:06:51.016Z,26.70
2018-06-05T21:09:19.291Z,26.70
2018-06-05T21:11:47.558Z,26.80
2018-06-05T21:14:15.798Z,26.80
2018-06-05T21:16:44.810Z,26.90
2018-06-05T21:19:13.064Z,26.80
2018-06-05T21:21:42.092Z,26.90
2018-06-05T21:24:10.723Z,26.90
2018-06-05T21:26:38.917Z,26.90
2018-06-05T21:29:07.937Z,26.70
2018-06-05T21:31:36.207Z,26.70
2018-06-05T21:34:04.472Z,26.60
2018-06-05T21:36:33.481Z,26.10
2018-06-05T21:39:01.747Z,26.10
2018-06-05T21:41:30.007Z,25.80
2018-06-05T21:43:59.017Z,25.40
2018-06-05T21:46:27.292Z,25.40
2018-06-05T21:48:55.541Z,25.50
2018-06-05T21:51:24.580Z,25.50
2018-06-05T21:53:52.860Z,25.50
2018-06-05T21:56:21.152Z,25.60
2018-06-05T21:58:49.738Z,25.40
2018-06-05T22:01:17.995Z,25.40
2018-06-05T22:03:46.263Z,25.60
2018-06-05T22:06:14.550Z,25.60
2018-06-05T22:08:42.793Z,25.70
2018-06-05T22:11:11.055Z,25.80
2018-06-05T22:13:40.377Z,26.00
2018-06-05T22:16:08.637Z,26.00
2018-06-05T22:18:37.648Z,25.30
2018-06-05T22:21:06.805Z,25.00
2018-06-05T22:23:35.045Z,25.00
2018-06-05T22:26:03.299Z,25.00
2018-06-05T22:28:31.660Z,25.00
2018-06-05T22:30:59.913Z,24.60
2018-06-05T22:33:28.955Z,24.40
2018-06-05T22:35:57.219Z,24.40
2018-06-05T22:38:25.475Z,24.10
2018-06-05T22:40:53.968Z,23.70
2018-06-05T22:43:22.262Z,23.70
2018-06-05T22:45:50.518Z,23.80
2018-06-05T22:48:18.791Z,23.80
2018-06-05T22:50:47.074Z,23.80
2018-06-05T22:53:15.331Z,23.60
2018-06-05T22:55:43.598Z,23.60
2018-06-05T22:58:11.860Z,23.60
2018-06-05T23:00:40.882Z,23.70
2018-06-05T23:03:09.158Z,23.60
2018-06-05T23:05:37.416Z,23.70
2018-06-05T23:08:05.674Z,23.80
2018-06-05T23:10:34.742Z,24.10
2018-06-05T23:13:02.954Z,24.10
2018-06-05T23:15:31.236Z,24.20
2018-06-05T23:17:59.495Z,23.80
2018-06-05T23:20:28.556Z,23.20
2018-06-05T23:22:56.932Z,23.10
2018-06-05T23:25:25.183Z,22.90
2018-06-05T23:27:53.444Z,22.70
2018-06-05T23:30:21.713Z,22.70
2018-06-05T23:32:49.984Z,22.70
2018-06-05T23:35:18.257Z,22.90
2018-06-05T23:37:46.519Z,23.00
2018-06-05T23:40:15.560Z,22.80
2018-06-05T23:42:43.820Z,22.80
2018-06-05T23:45:12.079Z,22.80
2018-06-05T23:47:40.353Z,22.70
2018-06-05T23:50:08.648Z,22.90
2018-06-05T23:52:36.914Z,23.00
2018-06-05T23:55:05.164Z,22.80
2018-06-05T23:57:34.199Z,22.50
